Time;durP1;ratioP1;P1;durP2;ratioP2;P2;SDS_P1;SDS_P2;PMS_P1;PMS_P2;Temp;Humidity;BMP_temperature;BMP_pressure;BME280_temperature;BME280_humidity;BME280_pressure;Samples;Min_cycle;Max_cycle;Signal;HPM_P1;HPM_P2
2023/12/31 00:00:09;;;;;;;4.70;4.30;;;7.10;99.90;;;;;;5052998;28;20583;-72
2023/12/31 00:02:35;;;;;;;6.03;4.77;;;7.10;99.90;;;;;;5033951;28;20199;-72
2023/12/31 00:05:01;;;;;;;5.30;4.80;;;7.10;99.90;;;;;;5033308;28;20196;-72
2023/12/31 00:07:27;;;;;;;4.97;4.57;;;7.10;99.90;;;;;;5033596;28;20179;-72
2023/12/31 00:09:53;;;;;;;5.00;4.60;;;7.10;99.90;;;;;;5033558;28;20225;-72
2023/12/31 00:12:18;;;;;;;4.97;4.60;;;7.10;99.90;;;;;;5033475;28;20226;-72
2023/12/31 00:14:44;;;;;;;6.10;4.57;;;7.00;99.90;;;;;;5034056;28;20238;-72
2023/12/31 00:17:10;;;;;;;4.80;4.50;;;7.10;99.90;;;;;;5033320;28;20262;-72
2023/12/31 00:19:35;;;;;;;6.37;4.73;;;7.10;99.90;;;;;;5034784;28;20203;-71
2023/12/31 00:22:01;;;;;;;5.73;4.43;;;7.00;99.90;;;;;;5033738;28;20241;-72
2023/12/31 00:24:26;;;;;;;4.80;4.40;;;7.10;99.90;;;;;;5034041;28;20164;-72
2023/12/31 00:26:52;;;;;;;5.27;4.90;;;7.10;99.90;;;;;;5031739;28;20171;-72
2023/12/31 00:29:18;;;;;;;8.10;4.70;;;7.10;99.90;;;;;;5033194;28;20198;-71
2023/12/31 00:31:43;;;;;;;5.13;4.73;;;7.00;99.90;;;;;;5032457;28;20175;-72
2023/12/31 00:34:10;;;;;;;5.20;4.80;;;7.00;99.90;;;;;;5032318;28;20354;-72
2023/12/31 00:36:36;;;;;;;5.10;4.70;;;7.00;99.90;;;;;;5031669;28;20215;-72
2023/12/31 00:39:01;;;;;;;5.23;4.83;;;7.00;99.90;;;;;;5033025;28;20697;-72
2023/12/31 00:41:27;;;;;;;5.30;4.90;;;7.00;99.90;;;;;;5051913;28;20170;-72
2023/12/31 00:43:52;;;;;;;4.93;4.53;;;7.10;99.90;;;;;;5051631;28;20163;-71
2023/12/31 00:46:18;;;;;;;8.07;5.47;;;7.20;99.90;;;;;;5051813;28;20203;-72
2023/12/31 00:48:44;;;;;;;6.57;5.77;;;7.30;99.90;;;;;;5052186;28;20171;-71
2023/12/31 00:51:09;;;;;;;7.47;5.67;;;7.30;99.90;;;;;;5051732;28;20666;-71
2023/12/31 00:53:35;;;;;;;5.57;5.17;;;7.30;99.90;;;;;;5052076;28;20175;-72
2023/12/31 00:56:01;;;;;;;6.00;5.50;;;7.40;99.90;;;;;;5032979;28;20203;-73
2023/12/31 00:58:26;;;;;;;6.20;5.70;;;7.40;99.90;;;;;;5032226;28;20742;-72
2023/12/31 01:00:52;;;;;;;6.17;5.57;;;7.50;99.90;;;;;;5031751;28;20251;-72
2023/12/31 01:03:18;;;;;;;5.93;5.50;;;7.50;99.90;;;;;;5031714;28;20250;-74
2023/12/31 01:05:44;;;;;;;6.03;5.47;;;7.50;99.90;;;;;;5031363;28;20359;-72
2023/12/31 01:08:10;;;;;;;6.10;5.60;;;7.60;99.90;;;;;;5043919;28;20179;-72
2023/12/31 01:10:35;;;;;;;6.50;5.77;;;7.60;99.90;;;;;;5051535;28;20638;-72
2023/12/31 01:13:02;;;;;;;6.27;5.87;;;7.60;99.90;;;;;;5051206;28;20516;-72
2023/12/31 01:15:28;;;;;;;5.60;5.20;;;7.60;99.90;;;;;;5051728;28;20192;-72
2023/12/31 01:17:53;;;;;;;6.10;5.60;;;7.70;99.90;;;;;;5047751;28;20225;-72
2023/12/31 01:20:19;;;;;;;5.23;4.83;;;7.60;99.90;;;;;;5032882;28;20175;-72
2023/12/31 01:22:44;;;;;;;5.90;5.40;;;7.60;99.90;;;;;;4995144;28;1098174;-73
2023/12/31 01:25:10;;;;;;;5.80;5.37;;;7.60;99.90;;;;;;5032743;28;20438;-72
2023/12/31 01:27:36;;;;;;;5.20;4.70;;;7.50;99.90;;;;;;5032260;28;20207;-72
2023/12/31 01:30:01;;;;;;;5.40;4.90;;;7.60;99.90;;;;;;5032326;28;20168;-73
2023/12/31 01:32:27;;;;;;;5.27;4.97;;;7.70;99.90;;;;;;5033178;28;20215;-71
2023/12/31 01:34:56;;;;;;;4.93;4.63;;;7.80;99.90;;;;;;5032290;28;20630;-72
2023/12/31 01:37:22;;;;;;;5.07;4.70;;;8.00;99.90;;;;;;5032705;28;20210;-71
2023/12/31 01:39:47;;;;;;;4.87;4.47;;;8.00;99.90;;;;;;5031828;28;20234;-72
2023/12/31 01:42:13;;;;;;;4.70;4.40;;;8.10;99.90;;;;;;5031998;28;20176;-72
2023/12/31 01:44:38;;;;;;;5.23;4.80;;;8.10;99.90;;;;;;5031366;28;20200;-72
2023/12/31 01:47:05;;;;;;;4.80;4.50;;;8.20;99.90;;;;;;5034259;28;20233;-71
2023/12/31 01:49:32;;;;;;;4.63;4.23;;;8.20;99.90;;;;;;5051689;28;20714;-71
2023/12/31 01:51:58;;;;;;;6.27;4.20;;;8.20;99.90;;;;;;5051331;28;20187;-71
2023/12/31 01:54:25;;;;;;;4.37;4.10;;;8.20;99.90;;;;;;5043833;28;20259;-71
2023/12/31 01:56:53;;;;;;;4.70;4.03;;;8.20;99.90;;;;;;5031305;28;20620;-71
2023/12/31 01:59:19;;;;;;;4.30;4.10;;;8.20;99.90;;;;;;5031685;28;20654;-71
2023/12/31 02:01:46;;;;;;;4.60;4.30;;;8.20;99.90;;;;;;5048585;28;20178;-71
2023/12/31 02:04:12;;;;;;;4.60;4.30;;;8.20;99.90;;;;;;5051212;28;20597;-71
2023/12/31 02:06:39;;;;;;;4.83;4.43;;;8.10;99.90;;;;;;5051016;28;20194;-71
2023/12/31 02:09:06;;;;;;;5.00;4.60;;;8.20;99.90;;;;;;5051281;28;20178;-72
2023/12/31 02:11:33;;;;;;;5.20;4.80;;;8.20;99.90;;;;;;5051263;28;20171;-71
2023/12/31 02:13:58;;;;;;;4.50;4.27;;;8.10;99.90;;;;;;5050980;28;20186;-71
2023/12/31 02:16:25;;;;;;;5.10;4.70;;;8.20;99.90;;;;;;5050270;28;20206;-72
2023/12/31 02:18:50;;;;;;;4.53;4.23;;;8.20;99.90;;;;;;5051117;28;20555;-71
2023/12/31 02:21:16;;;;;;;5.20;4.33;;;8.30;99.90;;;;;;5051136;28;20277;-71
2023/12/31 02:23:43;;;;;;;4.67;4.33;;;8.30;99.90;;;;;;5051382;28;20261;-70
2023/12/31 02:26:10;;;;;;;4.33;4.03;;;8.40;99.90;;;;;;5051746;28;20237;-71
2023/12/31 02:28:36;;;;;;;4.60;3.83;;;8.40;99.90;;;;;;5046154;28;20183;-71
2023/12/31 02:31:04;;;;;;;4.90;4.10;;;8.50;99.90;;;;;;5051071;28;20603;-71
2023/12/31 02:33:30;;;;;;;4.47;4.17;;;8.50;99.90;;;;;;5050960;28;20237;-71
2023/12/31 02:35:55;;;;;;;4.00;3.80;;;8.60;99.90;;;;;;5044147;28;20204;-72
2023/12/31 02:38:21;;;;;;;4.20;3.90;;;8.60;99.90;;;;;;5030895;28;20635;-71
2023/12/31 02:40:46;;;;;;;4.13;3.80;;;8.70;99.90;;;;;;5013335;28;20298;-72
2023/12/31 02:43:12;;;;;;;5.47;3.83;;;8.70;99.90;;;;;;5030827;28;20171;-71
2023/12/31 02:45:38;;;;;;;4.67;4.37;;;8.70;99.90;;;;;;5030718;28;20721;-71
2023/12/31 02:48:04;;;;;;;4.47;4.20;;;8.70;99.90;;;;;;5030982;28;20172;-72
2023/12/31 02:50:31;;;;;;;4.63;4.13;;;8.60;99.90;;;;;;5036144;28;20183;-71
2023/12/31 02:52:57;;;;;;;4.83;4.37;;;8.60;99.90;;;;;;5050598;28;20167;-71
2023/12/31 02:55:22;;;;;;;6.10;4.40;;;8.50;99.90;;;;;;5048719;28;20574;-72
2023/12/31 02:57:48;;;;;;;5.03;4.63;;;8.50;99.90;;;;;;5034018;28;20203;-71
2023/12/31 03:00:14;;;;;;;5.77;5.27;;;8.50;99.90;;;;;;5034933;28;20230;-71
2023/12/31 03:02:40;;;;;;;5.30;4.90;;;8.50;99.90;;;;;;5035180;28;20214;-71
2023/12/31 03:05:10;;;;;;;5.40;5.00;;;8.40;99.90;;;;;;5034615;28;20682;-71
2023/12/31 03:07:36;;;;;;;5.60;5.20;;;8.40;99.90;;;;;;5034917;28;20186;-70
2023/12/31 03:10:02;;;;;;;4.77;4.47;;;8.40;99.90;;;;;;5034600;28;20287;-70
2023/12/31 03:12:27;;;;;;;5.17;4.77;;;8.40;99.90;;;;;;5034431;28;20187;-70
2023/12/31 03:14:55;;;;;;;5.87;5.37;;;8.40;99.90;;;;;;5034527;28;20667;-70
2023/12/31 03:17:21;;;;;;;5.23;4.83;;;8.40;99.90;;;;;;5053115;28;20243;-70
2023/12/31 03:19:46;;;;;;;5.73;5.33;;;8.30;99.90;;;;;;5054186;28;20289;-71
2023/12/31 03:22:12;;;;;;;5.53;5.10;;;8.30;99.90;;;;;;5054186;28;20183;-71
2023/12/31 03:24:37;;;;;;;5.13;4.73;;;8.30;99.90;;;;;;5040087;28;20190;-71
2023/12/31 03:27:03;;;;;;;5.60;4.73;;;8.20;99.90;;;;;;5034050;28;20289;-71
2023/12/31 03:29:29;;;;;;;5.60;5.10;;;8.20;99.90;;;;;;5034300;28;20171;-70
2023/12/31 03:31:55;;;;;;;5.67;5.07;;;8.20;99.90;;;;;;5034099;28;20555;-71
2023/12/31 03:34:20;;;;;;;6.20;5.03;;;8.20;99.90;;;;;;5034177;28;20183;-71
2023/12/31 03:36:46;;;;;;;7.07;5.30;;;8.30;99.90;;;;;;5034041;28;20613;-70
2023/12/31 03:39:14;;;;;;;5.40;5.00;;;8.20;99.90;;;;;;5044998;28;20211;-71
2023/12/31 03:41:39;;;;;;;7.40;5.23;;;8.30;99.90;;;;;;5053718;28;20195;-71
2023/12/31 03:44:05;;;;;;;5.63;5.20;;;8.30;99.90;;;;;;5053752;28;20198;-71
2023/12/31 03:46:31;;;;;;;6.00;5.60;;;8.30;99.90;;;;;;5053937;28;20202;-71
2023/12/31 03:48:56;;;;;;;6.53;5.53;;;8.30;99.90;;;;;;5054339;28;20244;-71
2023/12/31 03:51:22;;;;;;;6.70;5.47;;;8.40;99.90;;;;;;5053910;28;20184;-71
2023/12/31 03:53:48;;;;;;;5.80;5.30;;;8.30;99.90;;;;;;5042498;28;20266;-70
2023/12/31 03:56:13;;;;;;;5.50;5.10;;;8.40;99.90;;;;;;5033630;28;20290;-70
2023/12/31 03:58:39;;;;;;;6.37;5.73;;;8.40;99.90;;;;;;5034019;28;20210;-71
2023/12/31 04:01:05;;;;;;;5.57;5.07;;;8.40;99.90;;;;;;5033902;28;20631;-70
2023/12/31 04:03:31;;;;;;;4.70;4.40;;;8.50;99.90;;;;;;5033762;28;20246;-70
2023/12/31 04:05:56;;;;;;;5.83;4.90;;;8.40;99.90;;;;;;5033717;28;20566;-71
2023/12/31 04:08:23;;;;;;;5.40;5.00;;;8.50;99.90;;;;;;5032848;28;20179;-71
2023/12/31 04:10:49;;;;;;;5.10;4.60;;;8.40;99.90;;;;;;5033550;28;20202;-71
2023/12/31 04:13:16;;;;;;;5.40;5.00;;;8.50;99.90;;;;;;5033712;28;20544;-71
2023/12/31 04:15:42;;;;;;;5.67;5.17;;;8.50;99.90;;;;;;5033490;28;20195;-71
2023/12/31 04:18:08;;;;;;;4.93;4.63;;;8.40;99.90;;;;;;5040761;28;20549;-71
2023/12/31 04:20:33;;;;;;;5.37;4.87;;;8.40;99.90;;;;;;5053229;28;20182;-71
2023/12/31 04:22:59;;;;;;;6.73;5.33;;;8.40;99.90;;;;;;5053007;28;20174;-71
2023/12/31 04:25:25;;;;;;;5.13;4.70;;;8.40;99.90;;;;;;5053220;28;20281;-71
2023/12/31 04:27:51;;;;;;;5.50;5.10;;;8.50;99.90;;;;;;5053101;28;20536;-71
2023/12/31 04:30:18;;;;;;;5.10;4.70;;;8.50;99.90;;;;;;5053449;28;20187;-71
2023/12/31 04:32:44;;;;;;;5.07;4.70;;;8.50;99.90;;;;;;5046955;28;20274;-72
2023/12/31 04:35:10;;;;;;;4.70;4.40;;;8.50;99.90;;;;;;5032903;28;20714;-72
2023/12/31 04:37:35;;;;;;;5.27;4.87;;;8.50;99.90;;;;;;5032970;28;20179;-72
2023/12/31 04:40:02;;;;;;;4.70;4.30;;;8.50;99.90;;;;;;5032763;28;20242;-71
2023/12/31 04:42:27;;;;;;;4.70;4.40;;;8.50;99.90;;;;;;5015010;28;20247;-72
2023/12/31 04:44:53;;;;;;;5.00;4.60;;;8.50;99.90;;;;;;5032488;28;20199;-71
2023/12/31 04:47:20;;;;;;;4.93;4.53;;;8.50;99.90;;;;;;5037094;28;20178;-72
2023/12/31 04:49:45;;;;;;;4.80;4.40;;;8.50;99.90;;;;;;5052749;28;20195;-72
2023/12/31 04:52:11;;;;;;;4.97;4.33;;;8.50;99.90;;;;;;5052564;28;20692;-72
2023/12/31 04:54:38;;;;;;;4.40;4.13;;;8.50;99.90;;;;;;5052529;28;20207;-72
2023/12/31 04:57:04;;;;;;;5.03;4.50;;;8.50;99.90;;;;;;5052271;28;20233;-72
2023/12/31 04:59:30;;;;;;;5.03;4.43;;;8.50;99.90;;;;;;5052583;28;20210;-72
2023/12/31 05:01:55;;;;;;;5.40;5.10;;;8.50;99.90;;;;;;5034395;28;20635;-72
2023/12/31 05:04:21;;;;;;;5.37;4.50;;;8.50;99.90;;;;;;5032422;28;20258;-72
2023/12/31 05:06:46;;;;;;;4.73;4.43;;;8.50;99.90;;;;;;5032365;28;20198;-71
2023/12/31 05:09:12;;;;;;;4.63;4.33;;;8.50;99.90;;;;;;5033566;28;20286;-72
2023/12/31 05:11:38;;;;;;;5.30;4.60;;;8.50;99.90;;;;;;5015167;28;20183;-72
2023/12/31 05:14:04;;;;;;;5.07;4.60;;;8.60;99.90;;;;;;5032544;28;20264;-71
2023/12/31 05:16:33;;;;;;;5.47;5.07;;;8.60;99.90;;;;;;5031800;28;20194;-72
2023/12/31 05:19:00;;;;;;;4.60;4.30;;;8.60;99.90;;;;;;5031343;28;20204;-71
2023/12/31 05:21:27;;;;;;;6.30;4.40;;;8.60;99.90;;;;;;5032008;28;20274;-71
2023/12/31 05:23:52;;;;;;;4.83;4.37;;;8.60;99.90;;;;;;5033996;28;20189;-72
2023/12/31 05:26:18;;;;;;;5.20;4.80;;;8.60;99.90;;;;;;5052059;28;20349;-71
2023/12/31 05:28:44;;;;;;;4.73;4.33;;;8.60;99.90;;;;;;5041997;28;20267;-72
2023/12/31 05:31:12;;;;;;;4.77;4.37;;;8.70;99.90;;;;;;5031879;28;20731;-71
2023/12/31 05:33:38;;;;;;;4.80;4.43;;;8.70;99.90;;;;;;5031662;28;20180;-71
2023/12/31 05:36:04;;;;;;;4.27;3.97;;;8.60;99.90;;;;;;5031636;28;20195;-72
2023/12/31 05:38:29;;;;;;;4.73;4.03;;;8.70;99.90;;;;;;5032179;28;20282;-72
2023/12/31 05:40:56;;;;;;;4.80;4.10;;;8.70;99.90;;;;;;5032159;28;20194;-72
2023/12/31 05:43:21;;;;;;;4.90;4.50;;;8.70;99.90;;;;;;5040018;28;20186;-71
2023/12/31 05:45:47;;;;;;;4.40;4.10;;;8.70;99.90;;;;;;5051438;28;20195;-71
2023/12/31 05:48:13;;;;;;;5.17;4.77;;;8.70;99.90;;;;;;5051563;28;20178;-71
2023/12/31 05:50:39;;;;;;;4.77;4.23;;;8.70;99.90;;;;;;5051776;28;20163;-71
2023/12/31 05:53:04;;;;;;;5.20;4.67;;;8.70;99.90;;;;;;5051608;28;20171;-71
2023/12/31 05:55:31;;;;;;;4.90;4.50;;;8.70;99.90;;;;;;5050793;28;20218;-71
2023/12/31 05:57:57;;;;;;;4.73;4.40;;;8.70;99.90;;;;;;5051460;28;20639;-71
2023/12/31 06:00:23;;;;;;;4.60;4.30;;;8.70;99.90;;;;;;5051362;28;20339;-71
2023/12/31 06:02:49;;;;;;;4.60;4.30;;;8.70;99.90;;;;;;5051315;28;20163;-71
2023/12/31 06:05:16;;;;;;;5.20;4.70;;;8.60;99.90;;;;;;5050808;28;20191;-70
2023/12/31 06:07:41;;;;;;;4.90;4.60;;;8.60;99.90;;;;;;5049940;28;20220;-70
2023/12/31 06:10:08;;;;;;;4.70;4.40;;;8.60;99.90;;;;;;5051300;28;20262;-70
2023/12/31 06:12:33;;;;;;;6.80;4.30;;;8.60;99.90;;;;;;5051098;28;20230;-71
2023/12/31 06:14:59;;;;;;;4.97;4.60;;;8.50;99.90;;;;;;5050882;28;20333;-70
2023/12/31 06:17:26;;;;;;;5.07;4.60;;;8.60;99.90;;;;;;5051352;28;20178;-71
2023/12/31 06:19:52;;;;;;;5.13;4.70;;;8.50;99.90;;;;;;5051119;28;20595;-71
2023/12/31 06:22:18;;;;;;;4.80;4.50;;;8.50;99.90;;;;;;5045905;28;20264;-71
2023/12/31 06:24:44;;;;;;;5.07;4.67;;;8.60;99.90;;;;;;5031082;28;20226;-71
2023/12/31 06:27:09;;;;;;;4.50;4.20;;;8.50;99.90;;;;;;5033878;28;20613;-72
2023/12/31 06:29:35;;;;;;;4.93;4.53;;;8.60;99.90;;;;;;5051225;28;20171;-71
2023/12/31 06:32:00;;;;;;;4.40;4.10;;;8.60;99.90;;;;;;5050866;28;20206;-71
2023/12/31 06:34:26;;;;;;;4.70;4.30;;;8.60;99.90;;;;;;5051060;28;20195;-71
2023/12/31 06:36:52;;;;;;;4.50;4.20;;;8.60;99.90;;;;;;5050980;28;20344;-72
2023/12/31 06:39:17;;;;;;;4.67;4.10;;;8.60;99.90;;;;;;5050569;28;20205;-72
2023/12/31 06:41:43;;;;;;;5.63;4.27;;;8.60;99.90;;;;;;5049017;28;20658;-72
2023/12/31 06:44:08;;;;;;;4.73;4.43;;;8.60;99.90;;;;;;5030733;28;20175;-72
2023/12/31 06:46:34;;;;;;;5.10;4.70;;;8.60;99.90;;;;;;5031201;28;20659;-72
2023/12/31 06:48:59;;;;;;;5.00;4.60;;;8.60;99.90;;;;;;5050848;28;20179;-71
2023/12/31 06:51:25;;;;;;;4.73;4.37;;;8.60;99.90;;;;;;5034524;28;20183;-71
2023/12/31 06:53:51;;;;;;;4.50;4.20;;;8.70;99.90;;;;;;5030218;28;20176;-72
2023/12/31 06:56:18;;;;;;;5.77;4.13;;;8.70;99.90;;;;;;5032219;28;20229;-72
2023/12/31 06:58:43;;;;;;;4.53;4.13;;;8.80;99.90;;;;;;5050802;28;20281;-71
2023/12/31 07:01:09;;;;;;;4.60;4.30;;;8.80;99.90;;;;;;5050351;28;20275;-70
2023/12/31 07:03:35;;;;;;;4.57;4.33;;;8.90;99.90;;;;;;5050066;28;20175;-70
2023/12/31 07:06:01;;;;;;;4.13;3.87;;;8.90;99.90;;;;;;5050363;28;20191;-72
2023/12/31 07:08:27;;;;;;;4.03;3.83;;;8.90;99.90;;;;;;5050599;28;20178;-71
2023/12/31 07:10:54;;;;;;;4.47;4.17;;;8.90;99.90;;;;;;5050534;28;20170;-71
2023/12/31 07:13:20;;;;;;;5.00;4.60;;;9.00;99.90;;;;;;5050479;28;20175;-71
2023/12/31 07:15:46;;;;;;;4.50;4.10;;;9.00;99.90;;;;;;5050423;28;20242;-68
2023/12/31 07:18:11;;;;;;;4.47;4.17;;;9.00;99.90;;;;;;5050378;28;20693;-70
2023/12/31 07:20:37;;;;;;;4.50;4.20;;;9.00;99.90;;;;;;5050427;28;20186;-70
2023/12/31 07:23:03;;;;;;;4.80;4.20;;;9.00;99.90;;;;;;5032702;28;20664;-70
2023/12/31 07:25:30;;;;;;;4.30;3.90;;;8.90;99.90;;;;;;5050281;28;20187;-70
2023/12/31 07:27:56;;;;;;;4.63;4.20;;;8.90;99.90;;;;;;5050605;28;20173;-70
2023/12/31 07:30:22;;;;;;;4.27;3.93;;;8.80;99.90;;;;;;5050617;28;20253;-71
2023/12/31 07:32:48;;;;;;;4.50;4.20;;;8.70;99.90;;;;;;5038738;28;20168;-70
2023/12/31 07:35:13;;;;;;;4.37;3.97;;;8.70;99.90;;;;;;5012391;28;20249;-70
2023/12/31 07:37:39;;;;;;;3.90;3.70;;;8.60;99.90;;;;;;5030239;28;20202;-71
2023/12/31 07:40:09;;;;;;;4.83;4.53;;;8.60;99.90;;;;;;5030589;28;20664;-71
2023/12/31 07:42:35;;;;;;;4.20;3.90;;;8.60;99.90;;;;;;5049689;28;20501;-69
2023/12/31 07:45:03;;;;;;;4.53;3.77;;;8.60;99.90;;;;;;5049031;28;20206;-69
2023/12/31 07:47:28;;;;;;;4.57;4.27;;;8.60;99.90;;;;;;5034528;28;20175;-69
2023/12/31 07:49:54;;;;;;;4.67;4.37;;;8.70;99.90;;;;;;5034029;28;20179;-69
2023/12/31 07:52:20;;;;;;;4.47;4.17;;;8.70;99.90;;;;;;5034135;28;20175;-70
2023/12/31 07:54:45;;;;;;;4.87;4.07;;;8.70;99.90;;;;;;5032851;28;20611;-70
2023/12/31 07:57:11;;;;;;;4.50;4.10;;;8.70;99.90;;;;;;5033723;28;20184;-70
2023/12/31 07:59:38;;;;;;;4.87;4.47;;;8.80;99.90;;;;;;5034229;28;20575;-71
2023/12/31 08:02:04;;;;;;;4.07;3.80;;;8.80;99.90;;;;;;5033511;28;20160;-70
2023/12/31 08:04:29;;;;;;;4.70;4.30;;;8.90;99.90;;;;;;5033303;28;20170;-70
2023/12/31 08:06:55;;;;;;;4.47;4.00;;;8.90;99.90;;;;;;5033400;28;20160;-69
2023/12/31 08:09:20;;;;;;;5.23;4.77;;;8.90;99.90;;;;;;5033541;28;20179;-69
2023/12/31 08:11:46;;;;;;;4.67;4.37;;;8.90;99.90;;;;;;5034480;28;20172;-68
2023/12/31 08:14:12;;;;;;;4.17;3.87;;;8.90;99.90;;;;;;5033289;28;20167;-70
2023/12/31 08:16:38;;;;;;;4.20;3.90;;;8.90;99.90;;;;;;5042227;28;20202;-69
2023/12/31 08:19:04;;;;;;;4.37;4.07;;;9.00;99.90;;;;;;5053228;28;20202;-69
2023/12/31 08:21:30;;;;;;;4.60;4.20;;;9.00;99.90;;;;;;5053128;28;20254;-69
2023/12/31 08:23:56;;;;;;;4.60;4.30;;;9.00;99.90;;;;;;5053336;28;20163;-69
2023/12/31 08:26:21;;;;;;;4.20;3.80;;;9.00;99.90;;;;;;5052345;28;20199;-69
2023/12/31 08:28:47;;;;;;;4.20;3.90;;;9.00;99.90;;;;;;5053173;28;20258;-69
2023/12/31 08:31:14;;;;;;;5.23;4.10;;;9.10;99.90;;;;;;5053015;28;20193;-69
2023/12/31 08:33:39;;;;;;;4.27;3.97;;;9.10;99.90;;;;;;5053117;28;20167;-70
2023/12/31 08:36:05;;;;;;;4.07;3.83;;;9.20;99.90;;;;;;5052856;28;20591;-70
2023/12/31 08:38:31;;;;;;;4.57;4.10;;;9.20;99.90;;;;;;5049326;28;20275;-70
2023/12/31 08:40:57;;;;;;;4.53;4.20;;;9.20;99.90;;;;;;5033129;28;20250;-70
2023/12/31 08:43:23;;;;;;;4.40;4.00;;;9.30;99.90;;;;;;5045983;28;20544;-69
2023/12/31 08:45:50;;;;;;;4.37;4.10;;;9.30;99.90;;;;;;5052632;28;20186;-69
2023/12/31 08:48:17;;;;;;;4.37;4.07;;;9.40;99.90;;;;;;5052622;28;20167;-70
2023/12/31 08:50:45;;;;;;;4.43;4.07;;;9.40;99.90;;;;;;5052647;28;20669;-69
2023/12/31 08:53:11;;;;;;;4.27;3.97;;;9.50;99.90;;;;;;5051991;28;20205;-70
2023/12/31 08:55:37;;;;;;;4.30;4.00;;;9.50;99.90;;;;;;5045852;28;20284;-70
2023/12/31 08:58:02;;;;;;;4.37;4.07;;;9.60;99.90;;;;;;5032665;28;20202;-69
2023/12/31 09:00:29;;;;;;;4.23;3.93;;;9.60;99.90;;;;;;5032512;28;20565;-69
2023/12/31 09:02:54;;;;;;;4.10;3.80;;;9.60;99.90;;;;;;5032608;28;20179;-70
2023/12/31 09:05:20;;;;;;;4.13;3.83;;;9.60;99.90;;;;;;5032244;28;20191;-69
2023/12/31 09:07:46;;;;;;;4.33;4.10;;;9.70;99.90;;;;;;5047506;28;20611;-69
2023/12/31 09:10:12;;;;;;;5.47;4.37;;;9.70;99.90;;;;;;5048619;28;20187;-69
2023/12/31 09:12:38;;;;;;;4.73;4.30;;;9.70;99.90;;;;;;5032457;28;20221;-69
2023/12/31 09:15:05;;;;;;;5.23;4.83;;;9.80;99.90;;;;;;5043276;28;20202;-69
2023/12/31 09:17:30;;;;;;;5.00;4.60;;;9.80;99.90;;;;;;5051979;28;20178;-70
2023/12/31 09:19:56;;;;;;;5.33;4.83;;;9.80;99.90;;;;;;5051947;28;20220;-70
2023/12/31 09:22:22;;;;;;;4.57;4.10;;;9.90;99.90;;;;;;5052333;28;20588;-69
2023/12/31 09:24:50;;;;;;;4.70;4.30;;;10.00;99.90;;;;;;5051977;28;20245;-69
2023/12/31 09:27:19;;;;;;;5.03;4.60;;;10.00;99.90;;;;;;5043922;28;20243;-70
2023/12/31 09:29:47;;;;;;;5.17;4.07;;;10.10;99.90;;;;;;5052059;28;20274;-69
2023/12/31 09:32:12;;;;;;;5.00;4.60;;;10.20;99.90;;;;;;5051751;28;20206;-69
2023/12/31 09:34:38;;;;;;;4.20;3.90;;;10.20;99.90;;;;;;5051210;28;20210;-69
2023/12/31 09:37:04;;;;;;;4.97;4.57;;;10.20;99.90;;;;;;5051012;28;20178;-69
2023/12/31 09:39:29;;;;;;;4.40;4.10;;;10.30;99.90;;;;;;5050937;28;20199;-69
2023/12/31 09:42:01;;;;;;;4.20;3.90;;;10.30;99.90;;;;;;5050273;28;20487;-69
2023/12/31 09:44:27;;;;;;;4.30;4.00;;;10.40;99.90;;;;;;5050800;28;20254;-69
2023/12/31 09:47:06;;;;;;;4.77;4.37;;;10.40;99.90;;;;;;5048743;28;20445;-69
2023/12/31 09:49:35;;;;;;;4.13;3.83;;;10.40;99.90;;;;;;5031722;28;20651;-69
2023/12/31 09:52:03;;;;;;;5.17;4.70;;;10.40;99.90;;;;;;5031573;28;20173;-69
2023/12/31 09:54:31;;;;;;;4.90;4.50;;;10.40;99.90;;;;;;5043703;28;20228;-69
2023/12/31 09:56:58;;;;;;;4.90;4.50;;;10.50;99.90;;;;;;5051023;28;20162;-69
2023/12/31 09:59:28;;;;;;;4.50;4.20;;;10.50;99.90;;;;;;5051142;28;20221;-69
2023/12/31 10:01:56;;;;;;;5.40;4.90;;;10.50;99.90;;;;;;5051512;28;20323;-70
2023/12/31 10:04:22;;;;;;;6.50;4.30;;;10.60;99.90;;;;;;5051086;28;20202;-70
2023/12/31 10:06:50;;;;;;;4.80;4.40;;;10.60;99.90;;;;;;5050864;28;20198;-69
2023/12/31 10:09:18;;;;;;;4.27;3.97;;;10.70;99.90;;;;;;5049643;28;20183;-70
2023/12/31 10:11:45;;;;;;;4.20;3.90;;;10.80;99.90;;;;;;5051551;28;20634;-70
2023/12/31 10:14:12;;;;;;;5.00;4.50;;;10.90;99.90;;;;;;5050738;28;20190;-70
2023/12/31 10:16:43;;;;;;;3.73;3.53;;;10.90;99.90;;;;;;5050762;28;20199;-70
2023/12/31 10:19:12;;;;;;;4.10;3.80;;;11.00;99.90;;;;;;5050982;28;20287;-71
2023/12/31 10:21:38;;;;;;;3.73;3.43;;;11.00;99.90;;;;;;5051254;28;20182;-70
2023/12/31 10:24:04;;;;;;;3.80;3.60;;;11.00;99.90;;;;;;5039485;28;20191;-70
2023/12/31 10:26:30;;;;;;;8.53;8.10;;;11.00;99.90;;;;;;5030922;28;20199;-70
2023/12/31 10:28:55;;;;;;;5.33;3.33;;;11.00;99.90;;;;;;5031153;28;20392;-70
2023/12/31 10:31:25;;;;;;;3.30;3.10;;;11.00;99.90;;;;;;5031158;28;20258;-70
2023/12/31 10:33:51;;;;;;;3.33;3.13;;;11.10;99.90;;;;;;5031026;28;20167;-70
2023/12/31 10:36:23;;;;;;;3.03;2.83;;;11.10;99.90;;;;;;5030747;28;20249;-71
2023/12/31 10:38:50;;;;;;;3.23;3.03;;;11.10;99.90;;;;;;5040247;28;20233;-71
2023/12/31 10:41:20;;;;;;;3.03;2.83;;;11.00;99.90;;;;;;5050821;28;20181;-70
2023/12/31 10:43:47;;;;;;;3.10;3.00;;;11.00;99.90;;;;;;5051606;28;20205;-70
2023/12/31 10:46:15;;;;;;;3.20;3.00;;;11.00;99.90;;;;;;5050490;28;20248;-70
2023/12/31 10:48:48;;;;;;;3.20;3.00;;;11.00;99.90;;;;;;5049178;28;20236;-70
2023/12/31 10:51:23;;;;;;;3.13;2.93;;;11.00;99.90;;;;;;5050617;28;20265;-70
2023/12/31 10:53:54;;;;;;;3.20;3.00;;;10.90;99.90;;;;;;5050522;28;20253;-70
2023/12/31 10:56:21;;;;;;;3.07;2.73;;;10.90;99.90;;;;;;5040644;28;20281;-70
2023/12/31 10:58:47;;;;;;;4.40;3.00;;;10.90;99.90;;;;;;5030718;28;20253;-71
2023/12/31 11:01:15;;;;;;;2.97;2.87;;;10.90;99.90;;;;;;5049266;28;20179;-70
2023/12/31 11:03:43;;;;;;;2.93;2.73;;;10.90;99.90;;;;;;5050432;28;20174;-71
2023/12/31 11:06:10;;;;;;;3.00;2.80;;;10.90;99.90;;;;;;5050301;28;20229;-70
2023/12/31 11:08:37;;;;;;;2.80;2.60;;;10.90;99.90;;;;;;5040443;28;20241;-70
2023/12/31 11:11:03;;;;;;;2.80;2.70;;;10.90;99.90;;;;;;5030548;28;20206;-70
2023/12/31 11:13:31;;;;;;;3.03;2.77;;;10.90;99.90;;;;;;5030255;28;20179;-70
2023/12/31 11:16:01;;;;;;;3.20;2.90;;;10.90;99.90;;;;;;5030189;28;20437;-70
2023/12/31 11:18:27;;;;;;;2.80;2.70;;;10.80;99.90;;;;;;5033052;28;20203;-70
2023/12/31 11:21:07;;;;;;;2.67;2.57;;;10.80;99.90;;;;;;5034285;28;20223;-70
2023/12/31 11:24:08;;;;;;;5.20;3.30;;;10.80;99.90;;;;;;5045692;28;20187;-71
2023/12/31 11:26:34;;;;;;;2.70;2.50;;;10.70;99.90;;;;;;5036273;28;20205;-71
2023/12/31 11:29:01;;;;;;;2.70;2.60;;;10.70;99.90;;;;;;5054111;28;20182;-71
2023/12/31 11:31:26;;;;;;;5.60;2.90;;;10.70;99.90;;;;;;5054032;28;20197;-71
2023/12/31 11:33:52;;;;;;;2.70;2.60;;;10.70;99.90;;;;;;5054198;28;20175;-72
2023/12/31 11:36:17;;;;;;;2.63;2.43;;;10.70;99.90;;;;;;5053768;28;20249;-71
2023/12/31 11:39:02;;;;;;;3.00;2.80;;;10.70;99.90;;;;;;5052495;28;20233;-70
2023/12/31 11:41:45;;;;;;;3.00;2.80;;;10.70;99.90;;;;;;5054443;28;20186;-71
2023/12/31 11:44:29;;;;;;;2.93;2.80;;;10.70;99.90;;;;;;5054018;28;20630;-72
2023/12/31 11:46:57;;;;;;;2.93;2.83;;;10.80;99.90;;;;;;5051050;28;20623;-71
2023/12/31 11:49:23;;;;;;;3.37;2.90;;;10.80;99.90;;;;;;5023227;28;20232;-71
2023/12/31 11:51:56;;;;;;;2.93;2.83;;;10.70;99.90;;;;;;5054096;28;20178;-72
2023/12/31 11:54:39;;;;;;;3.20;3.10;;;10.70;99.90;;;;;;5053781;28;20202;-71
2023/12/31 11:57:06;;;;;;;3.10;2.90;;;10.70;99.90;;;;;;5053640;28;20262;-71
2023/12/31 11:59:39;;;;;;;2.90;2.80;;;10.70;99.90;;;;;;5053796;28;20237;-71
2023/12/31 12:02:06;;;;;;;3.57;3.37;;;10.70;99.90;;;;;;5053996;28;20175;-71
2023/12/31 12:04:32;;;;;;;2.80;2.70;;;10.60;99.90;;;;;;5043579;28;20190;-71
2023/12/31 12:06:58;;;;;;;3.20;3.00;;;10.60;99.90;;;;;;5036141;28;20168;-71
2023/12/31 12:09:29;;;;;;;3.20;3.00;;;10.60;99.90;;;;;;5034093;28;20237;-71
2023/12/31 12:12:05;;;;;;;2.93;2.73;;;10.60;99.90;;;;;;5033865;28;20175;-71
2023/12/31 12:14:31;;;;;;;3.50;3.27;;;10.70;99.90;;;;;;5034040;28;20216;-72
2023/12/31 12:16:58;;;;;;;3.97;3.63;;;10.60;99.90;;;;;;5034719;28;20183;-71
2023/12/31 12:19:27;;;;;;;3.00;2.80;;;10.60;99.90;;;;;;5033687;28;20570;-71
2023/12/31 12:21:54;;;;;;;3.27;3.07;;;10.60;99.90;;;;;;5033515;28;20253;-72
2023/12/31 12:24:20;;;;;;;3.37;3.10;;;10.70;99.90;;;;;;5033307;28;20176;-71
2023/12/31 12:26:48;;;;;;;5.10;2.87;;;10.70;99.90;;;;;;5033359;28;20186;-71
2023/12/31 12:29:15;;;;;;;3.00;2.80;;;10.80;99.90;;;;;;5033031;28;20183;-72
2023/12/31 12:31:46;;;;;;;5.10;2.80;;;10.90;99.90;;;;;;5035299;28;20194;-71
2023/12/31 12:34:14;;;;;;;2.90;2.70;;;11.00;99.90;;;;;;5032999;28;20186;-71
2023/12/31 12:36:42;;;;;;;3.50;3.30;;;11.10;99.90;;;;;;5033076;28;20195;-70
2023/12/31 12:39:15;;;;;;;3.13;2.87;;;11.20;99.90;;;;;;5034204;28;20681;-71
2023/12/31 12:41:44;;;;;;;3.40;3.10;;;11.30;99.90;;;;;;5042254;28;20186;-71
2023/12/31 12:44:12;;;;;;;3.20;3.00;;;11.40;99.90;;;;;;5053119;28;20174;-71
2023/12/31 12:46:39;;;;;;;3.40;3.10;;;11.60;99.90;;;;;;5037777;28;20770;-71
2023/12/31 12:49:05;;;;;;;3.23;2.93;;;11.80;99.90;;;;;;5033788;28;20183;-71
2023/12/31 12:51:31;;;;;;;3.47;2.60;;;11.80;99.90;;;;;;5033085;28;20183;-70